Terminal Aerodrome Forecast
Issued by NWS

Home | Current Version | Previous Version | Text Only | Print | Product List | Glossary Off
Versions: 1 2 3 4 5 6 7 8 9 10 11 12 13 14 15 16 17 18 19 20

378
FTUS43 KBIS 240332 AAC
TAFJMS
TAF AMD
KJMS 240332Z 2404/2424 12015G20KT 5SM BR VCSH OVC003
      TEMPO 2404/2406 2SM BR
     FM240600 13014G19KT 5SM BR OVC006
      TEMPO 2406/2409 P6SM NSW SCT005 BKN035
     FM240900 14014G20KT P6SM SCT035
     FM241300 14014G20KT P6SM BKN025
     FM241800 15015G21KT P6SM -SHRA SCT011 OVC025=

USA.gov is the U.S. government's official web portal to all federal, state and local government web resources and services.